Wintersville, Ohio
Current Conditions -  °F | °C
As of 9:53 PM on Saturday 25 Oct 2014 (Local Time) from KHLG Reporting Station
Clear Clear  
Wind Chill: 59°   Ceiling: Unl
Heat Index: 59°   Visibility: 10mi
Dew Point: 51°   Wind: 8mph
Humidity: 75%   Direction: 270°W
Pressure: 29.8"   Gusts: NA
Location:  40.3638°N, 80.7135°W
Report Text: KHLG 260153Z AUTO 27007KT 10SM CLR 15/11 A2980 RMK AO2 SLP093 T01500106
Loading
Personal Weather Stations






























Interactive Weather Map New forecast layout! Learn more

10-Day Weather Forecast

Advertisements
Track Severe Weather on mobile